sensor_id;sensor_type;location;lat;lon;timestamp;P1;durP1;ratioP1;P2;durP2;ratioP2
62071;SDS011;48031;48.542;13.232;2024-01-27T00:01:36;2.08;;;1.40;;
62071;SDS011;48031;48.542;13.232;2024-01-27T00:05:40;4.15;;;1.70;;
62071;SDS011;48031;48.542;13.232;2024-01-27T00:09:42;2.65;;;1.80;;
62071;SDS011;48031;48.542;13.232;2024-01-27T00:13:45;2.22;;;1.50;;
62071;SDS011;48031;48.542;13.232;2024-01-27T00:17:47;2.67;;;1.55;;
62071;SDS011;48031;48.542;13.232;2024-01-27T00:21:50;2.90;;;1.88;;
62071;SDS011;48031;48.542;13.232;2024-01-27T00:25:51;1.25;;;1.15;;
62071;SDS011;48031;48.542;13.232;2024-01-27T00:29:54;1.80;;;1.70;;
62071;SDS011;48031;48.542;13.232;2024-01-27T00:33:56;2.55;;;1.60;;
62071;SDS011;48031;48.542;13.232;2024-01-27T00:37:58;1.63;;;1.50;;
62071;SDS011;48031;48.542;13.232;2024-01-27T00:42:00;1.40;;;1.30;;
62071;SDS011;48031;48.542;13.232;2024-01-27T00:46:05;1.95;;;1.58;;
62071;SDS011;48031;48.542;13.232;2024-01-27T00:50:07;3.00;;;1.58;;
62071;SDS011;48031;48.542;13.232;2024-01-27T00:54:10;2.38;;;1.55;;
62071;SDS011;48031;48.542;13.232;2024-01-27T00:58:12;1.10;;;1.10;;
62071;SDS011;48031;48.542;13.232;2024-01-27T01:02:14;1.75;;;1.58;;
62071;SDS011;48031;48.542;13.232;2024-01-27T01:06:15;2.13;;;1.73;;
62071;SDS011;48031;48.542;13.232;2024-01-27T01:10:17;2.13;;;1.80;;
62071;SDS011;48031;48.542;13.232;2024-01-27T01:14:20;2.00;;;1.67;;
62071;SDS011;48031;48.542;13.232;2024-01-27T01:18:22;2.13;;;1.80;;
62071;SDS011;48031;48.542;13.232;2024-01-27T01:22:25;6.25;;;1.90;;
62071;SDS011;48031;48.542;13.232;2024-01-27T01:26:27;3.03;;;2.08;;
62071;SDS011;48031;48.542;13.232;2024-01-27T01:30:30;1.80;;;1.70;;
62071;SDS011;48031;48.542;13.232;2024-01-27T01:34:32;2.97;;;1.88;;
62071;SDS011;48031;48.542;13.232;2024-01-27T01:38:35;2.38;;;1.88;;
62071;SDS011;48031;48.542;13.232;2024-01-27T01:42:37;1.90;;;1.80;;
62071;SDS011;48031;48.542;13.232;2024-01-27T01:46:39;2.67;;;1.75;;
62071;SDS011;48031;48.542;13.232;2024-01-27T01:50:41;3.08;;;1.90;;
62071;SDS011;48031;48.542;13.232;2024-01-27T01:54:44;1.50;;;1.40;;
62071;SDS011;48031;48.542;13.232;2024-01-27T01:58:47;3.30;;;1.42;;
62071;SDS011;48031;48.542;13.232;2024-01-27T02:02:49;2.50;;;1.50;;
62071;SDS011;48031;48.542;13.232;2024-01-27T02:06:51;3.25;;;1.50;;
62071;SDS011;48031;48.542;13.232;2024-01-27T02:10:53;1.70;;;1.60;;
62071;SDS011;48031;48.542;13.232;2024-01-27T02:14:55;1.40;;;1.30;;
62071;SDS011;48031;48.542;13.232;2024-01-27T02:18:57;1.73;;;1.55;;
62071;SDS011;48031;48.542;13.232;2024-01-27T02:22:59;1.50;;;1.40;;
62071;SDS011;48031;48.542;13.232;2024-01-27T02:27:05;4.00;;;1.80;;
62071;SDS011;48031;48.542;13.232;2024-01-27T02:31:07;1.63;;;1.50;;
62071;SDS011;48031;48.542;13.232;2024-01-27T02:35:10;1.33;;;1.20;;
62071;SDS011;48031;48.542;13.232;2024-01-27T02:39:12;3.55;;;1.55;;
62071;SDS011;48031;48.542;13.232;2024-01-27T02:43:14;3.60;;;2.10;;
62071;SDS011;48031;48.542;13.232;2024-01-27T02:47:16;4.18;;;1.80;;
62071;SDS011;48031;48.542;13.232;2024-01-27T02:51:19;2.72;;;1.63;;
62071;SDS011;48031;48.542;13.232;2024-01-27T02:55:22;1.75;;;1.65;;
62071;SDS011;48031;48.542;13.232;2024-01-27T02:59:24;5.07;;;1.60;;
62071;SDS011;48031;48.542;13.232;2024-01-27T03:03:26;3.10;;;1.75;;
62071;SDS011;48031;48.542;13.232;2024-01-27T03:07:28;4.05;;;2.00;;
62071;SDS011;48031;48.542;13.232;2024-01-27T03:11:30;1.38;;;1.27;;
62071;SDS011;48031;48.542;13.232;2024-01-27T03:15:32;3.25;;;1.90;;
62071;SDS011;48031;48.542;13.232;2024-01-27T03:19:35;1.50;;;1.40;;
62071;SDS011;48031;48.542;13.232;2024-01-27T03:23:37;6.03;;;2.00;;
62071;SDS011;48031;48.542;13.232;2024-01-27T03:27:39;2.00;;;1.48;;
62071;SDS011;48031;48.542;13.232;2024-01-27T03:31:41;4.40;;;2.05;;
62071;SDS011;48031;48.542;13.232;2024-01-27T03:35:44;1.42;;;1.30;;
62071;SDS011;48031;48.542;13.232;2024-01-27T03:39:45;5.00;;;1.90;;
62071;SDS011;48031;48.542;13.232;2024-01-27T03:43:47;1.60;;;1.50;;
62071;SDS011;48031;48.542;13.232;2024-01-27T03:47:49;2.25;;;1.38;;
62071;SDS011;48031;48.542;13.232;2024-01-27T03:51:52;2.25;;;1.77;;
62071;SDS011;48031;48.542;13.232;2024-01-27T03:55:54;1.90;;;1.77;;
62071;SDS011;48031;48.542;13.232;2024-01-27T03:59:56;5.78;;;1.90;;
62071;SDS011;48031;48.542;13.232;2024-01-27T04:03:58;6.25;;;1.90;;
62071;SDS011;48031;48.542;13.232;2024-01-27T04:08:01;3.03;;;1.60;;
62071;SDS011;48031;48.542;13.232;2024-01-27T04:12:04;2.65;;;1.73;;
62071;SDS011;48031;48.542;13.232;2024-01-27T04:16:06;1.60;;;1.50;;
62071;SDS011;48031;48.542;13.232;2024-01-27T04:20:08;2.50;;;1.85;;
62071;SDS011;48031;48.542;13.232;2024-01-27T04:24:11;2.00;;;1.80;;
62071;SDS011;48031;48.542;13.232;2024-01-27T04:28:13;3.88;;;2.30;;
62071;SDS011;48031;48.542;13.232;2024-01-27T04:32:16;5.28;;;2.25;;
62071;SDS011;48031;48.542;13.232;2024-01-27T04:36:28;5.82;;;2.28;;
62071;SDS011;48031;48.542;13.232;2024-01-27T04:40:33;3.67;;;2.42;;
62071;SDS011;48031;48.542;13.232;2024-01-27T04:44:39;9.32;;;2.63;;
62071;SDS011;48031;48.542;13.232;2024-01-27T04:48:43;4.67;;;2.13;;
62071;SDS011;48031;48.542;13.232;2024-01-27T04:52:45;3.92;;;2.50;;
62071;SDS011;48031;48.542;13.232;2024-01-27T04:56:47;3.88;;;2.10;;
62071;SDS011;48031;48.542;13.232;2024-01-27T05:00:50;4.00;;;2.65;;
62071;SDS011;48031;48.542;13.232;2024-01-27T05:04:52;3.85;;;2.60;;
62071;SDS011;48031;48.542;13.232;2024-01-27T05:08:56;4.80;;;2.40;;
62071;SDS011;48031;48.542;13.232;2024-01-27T05:12:59;3.30;;;2.30;;
62071;SDS011;48031;48.542;13.232;2024-01-27T05:17:01;5.80;;;2.85;;
62071;SDS011;48031;48.542;13.232;2024-01-27T05:21:03;3.15;;;2.60;;
62071;SDS011;48031;48.542;13.232;2024-01-27T05:25:06;5.65;;;2.85;;
62071;SDS011;48031;48.542;13.232;2024-01-27T05:29:08;6.95;;;2.60;;
62071;SDS011;48031;48.542;13.232;2024-01-27T05:33:10;6.53;;;2.10;;
62071;SDS011;48031;48.542;13.232;2024-01-27T05:37:13;5.90;;;2.67;;
62071;SDS011;48031;48.542;13.232;2024-01-27T05:41:15;6.18;;;2.47;;
62071;SDS011;48031;48.542;13.232;2024-01-27T05:45:18;6.07;;;2.40;;
62071;SDS011;48031;48.542;13.232;2024-01-27T05:49:21;4.55;;;2.60;;
62071;SDS011;48031;48.542;13.232;2024-01-27T05:53:23;3.95;;;2.30;;
62071;SDS011;48031;48.542;13.232;2024-01-27T05:57:25;4.05;;;2.13;;
62071;SDS011;48031;48.542;13.232;2024-01-27T06:01:27;5.15;;;2.53;;
62071;SDS011;48031;48.542;13.232;2024-01-27T06:05:30;4.13;;;2.50;;
62071;SDS011;48031;48.542;13.232;2024-01-27T06:09:33;3.67;;;2.20;;
62071;SDS011;48031;48.542;13.232;2024-01-27T06:13:36;3.60;;;2.40;;
62071;SDS011;48031;48.542;13.232;2024-01-27T06:17:42;2.83;;;2.40;;
62071;SDS011;48031;48.542;13.232;2024-01-27T06:21:45;3.13;;;2.03;;
62071;SDS011;48031;48.542;13.232;2024-01-27T06:25:47;2.65;;;1.90;;
62071;SDS011;48031;48.542;13.232;2024-01-27T06:29:49;2.83;;;2.50;;
62071;SDS011;48031;48.542;13.232;2024-01-27T06:33:51;2.78;;;2.42;;
62071;SDS011;48031;48.542;13.232;2024-01-27T06:37:54;4.25;;;2.85;;
62071;SDS011;48031;48.542;13.232;2024-01-27T06:41:56;5.47;;;2.80;;
62071;SDS011;48031;48.542;13.232;2024-01-27T06:45:58;9.77;;;3.88;;
62071;SDS011;48031;48.542;13.232;2024-01-27T06:50:00;4.25;;;2.55;;
62071;SDS011;48031;48.542;13.232;2024-01-27T06:54:02;11.45;;;3.28;;
62071;SDS011;48031;48.542;13.232;2024-01-27T06:58:04;3.78;;;2.20;;
62071;SDS011;48031;48.542;13.232;2024-01-27T07:02:06;5.40;;;2.83;;
62071;SDS011;48031;48.542;13.232;2024-01-27T07:06:09;4.30;;;2.60;;
62071;SDS011;48031;48.542;13.232;2024-01-27T07:10:11;4.25;;;2.50;;
62071;SDS011;48031;48.542;13.232;2024-01-27T07:14:13;5.05;;;2.65;;
62071;SDS011;48031;48.542;13.232;2024-01-27T07:18:15;6.35;;;3.13;;
62071;SDS011;48031;48.542;13.232;2024-01-27T07:22:19;6.47;;;2.65;;
62071;SDS011;48031;48.542;13.232;2024-01-27T07:26:23;6.20;;;2.58;;
62071;SDS011;48031;48.542;13.232;2024-01-27T07:30:25;3.00;;;2.25;;
62071;SDS011;48031;48.542;13.232;2024-01-27T07:34:27;7.53;;;2.92;;
62071;SDS011;48031;48.542;13.232;2024-01-27T07:38:29;5.68;;;2.65;;
62071;SDS011;48031;48.542;13.232;2024-01-27T07:42:31;5.25;;;2.35;;
62071;SDS011;48031;48.542;13.232;2024-01-27T07:46:33;7.85;;;2.60;;
62071;SDS011;48031;48.542;13.232;2024-01-27T07:50:35;8.48;;;3.47;;
62071;SDS011;48031;48.542;13.232;2024-01-27T07:54:37;6.53;;;3.00;;
62071;SDS011;48031;48.542;13.232;2024-01-27T07:58:40;7.40;;;3.03;;
62071;SDS011;48031;48.542;13.232;2024-01-27T08:02:43;5.38;;;2.53;;
62071;SDS011;48031;48.542;13.232;2024-01-27T08:06:48;4.10;;;2.83;;
62071;SDS011;48031;48.542;13.232;2024-01-27T08:10:52;9.87;;;4.20;;
62071;SDS011;48031;48.542;13.232;2024-01-27T08:14:55;4.20;;;3.00;;
62071;SDS011;48031;48.542;13.232;2024-01-27T08:18:57;8.40;;;3.40;;
62071;SDS011;48031;48.542;13.232;2024-01-27T08:22:59;7.70;;;3.20;;
62071;SDS011;48031;48.542;13.232;2024-01-27T08:27:04;5.00;;;3.25;;
62071;SDS011;48031;48.542;13.232;2024-01-27T08:31:07;5.68;;;2.90;;
62071;SDS011;48031;48.542;13.232;2024-01-27T08:35:09;6.57;;;2.92;;
62071;SDS011;48031;48.542;13.232;2024-01-27T08:39:12;4.40;;;2.88;;
62071;SDS011;48031;48.542;13.232;2024-01-27T08:43:14;4.80;;;2.78;;
62071;SDS011;48031;48.542;13.232;2024-01-27T08:47:17;7.60;;;3.30;;
62071;SDS011;48031;48.542;13.232;2024-01-27T08:51:19;3.65;;;2.38;;
62071;SDS011;48031;48.542;13.232;2024-01-27T08:55:21;6.45;;;2.78;;
62071;SDS011;48031;48.542;13.232;2024-01-27T08:59:25;7.75;;;3.40;;
62071;SDS011;48031;48.542;13.232;2024-01-27T09:03:27;4.40;;;2.70;;
62071;SDS011;48031;48.542;13.232;2024-01-27T09:07:29;3.80;;;2.60;;
62071;SDS011;48031;48.542;13.232;2024-01-27T09:11:31;4.70;;;2.40;;
62071;SDS011;48031;48.542;13.232;2024-01-27T09:15:35;8.88;;;3.05;;
62071;SDS011;48031;48.542;13.232;2024-01-27T09:19:37;6.47;;;2.67;;
62071;SDS011;48031;48.542;13.232;2024-01-27T09:23:40;3.83;;;2.67;;
62071;SDS011;48031;48.542;13.232;2024-01-27T09:27:42;22.20;;;6.60;;
62071;SDS011;48031;48.542;13.232;2024-01-27T09:31:44;14.88;;;5.55;;
62071;SDS011;48031;48.542;13.232;2024-01-27T09:35:46;9.02;;;3.88;;
62071;SDS011;48031;48.542;13.232;2024-01-27T09:39:48;8.07;;;3.70;;
62071;SDS011;48031;48.542;13.232;2024-01-27T09:43:50;12.07;;;2.90;;
62071;SDS011;48031;48.542;13.232;2024-01-27T09:47:56;5.47;;;3.05;;
62071;SDS011;48031;48.542;13.232;2024-01-27T09:52:00;9.25;;;3.33;;
62071;SDS011;48031;48.542;13.232;2024-01-27T09:56:02;9.32;;;3.78;;
62071;SDS011;48031;48.542;13.232;2024-01-27T10:00:05;4.47;;;2.70;;
62071;SDS011;48031;48.542;13.232;2024-01-27T10:04:18;12.13;;;2.78;;
62071;SDS011;48031;48.542;13.232;2024-01-27T10:08:22;6.70;;;2.90;;
62071;SDS011;48031;48.542;13.232;2024-01-27T10:12:25;6.28;;;2.65;;
62071;SDS011;48031;48.542;13.232;2024-01-27T10:16:39;9.00;;;3.35;;
62071;SDS011;48031;48.542;13.232;2024-01-27T10:20:41;6.70;;;2.70;;
62071;SDS011;48031;48.542;13.232;2024-01-27T10:24:44;4.18;;;2.63;;
62071;SDS011;48031;48.542;13.232;2024-01-27T10:28:52;7.93;;;3.22;;
62071;SDS011;48031;48.542;13.232;2024-01-27T10:32:57;4.22;;;2.70;;
62071;SDS011;48031;48.542;13.232;2024-01-27T10:37:00;4.30;;;2.58;;
62071;SDS011;48031;48.542;13.232;2024-01-27T10:41:03;6.63;;;3.20;;
62071;SDS011;48031;48.542;13.232;2024-01-27T10:45:09;5.43;;;2.75;;
62071;SDS011;48031;48.542;13.232;2024-01-27T10:49:14;7.40;;;3.40;;
62071;SDS011;48031;48.542;13.232;2024-01-27T10:53:23;6.43;;;2.72;;
62071;SDS011;48031;48.542;13.232;2024-01-27T10:57:26;3.70;;;2.88;;
62071;SDS011;48031;48.542;13.232;2024-01-27T11:01:29;7.72;;;2.60;;
62071;SDS011;48031;48.542;13.232;2024-01-27T11:05:34;5.22;;;2.47;;
62071;SDS011;48031;48.542;13.232;2024-01-27T11:09:37;6.03;;;3.00;;
62071;SDS011;48031;48.542;13.232;2024-01-27T11:13:40;3.42;;;2.50;;
62071;SDS011;48031;48.542;13.232;2024-01-27T11:17:42;7.97;;;2.55;;
62071;SDS011;48031;48.542;13.232;2024-01-27T11:21:44;7.15;;;3.17;;
62071;SDS011;48031;48.542;13.232;2024-01-27T11:25:46;7.60;;;3.60;;
62071;SDS011;48031;48.542;13.232;2024-01-27T11:29:48;4.35;;;2.60;;
62071;SDS011;48031;48.542;13.232;2024-01-27T11:33:50;9.27;;;3.28;;
62071;SDS011;48031;48.542;13.232;2024-01-27T11:37:56;6.93;;;2.90;;
62071;SDS011;48031;48.542;13.232;2024-01-27T11:42:06;11.82;;;3.15;;
62071;SDS011;48031;48.542;13.232;2024-01-27T11:46:09;6.85;;;2.65;;
62071;SDS011;48031;48.542;13.232;2024-01-27T11:50:11;4.57;;;2.22;;
62071;SDS011;48031;48.542;13.232;2024-01-27T11:54:14;7.22;;;2.83;;
62071;SDS011;48031;48.542;13.232;2024-01-27T11:58:16;4.40;;;2.22;;
62071;SDS011;48031;48.542;13.232;2024-01-27T12:02:18;3.53;;;2.38;;
62071;SDS011;48031;48.542;13.232;2024-01-27T12:06:21;3.85;;;2.30;;
62071;SDS011;48031;48.542;13.232;2024-01-27T12:10:24;6.53;;;2.53;;
62071;SDS011;48031;48.542;13.232;2024-01-27T12:14:36;5.20;;;2.13;;
62071;SDS011;48031;48.542;13.232;2024-01-27T12:18:39;4.88;;;2.50;;
62071;SDS011;48031;48.542;13.232;2024-01-27T12:22:41;5.75;;;2.35;;
62071;SDS011;48031;48.542;13.232;2024-01-27T12:26:44;5.32;;;2.40;;
62071;SDS011;48031;48.542;13.232;2024-01-27T12:30:48;3.53;;;1.95;;
62071;SDS011;48031;48.542;13.232;2024-01-27T12:34:52;6.50;;;1.90;;
62071;SDS011;48031;48.542;13.232;2024-01-27T12:38:57;4.93;;;2.17;;
62071;SDS011;48031;48.542;13.232;2024-01-27T12:43:00;3.58;;;1.77;;
62071;SDS011;48031;48.542;13.232;2024-01-27T12:47:02;9.75;;;2.00;;
62071;SDS011;48031;48.542;13.232;2024-01-27T12:51:05;3.25;;;1.73;;
62071;SDS011;48031;48.542;13.232;2024-01-27T12:55:07;5.30;;;1.98;;
62071;SDS011;48031;48.542;13.232;2024-01-27T12:59:10;2.85;;;1.38;;
62071;SDS011;48031;48.542;13.232;2024-01-27T13:03:12;5.22;;;2.03;;
62071;SDS011;48031;48.542;13.232;2024-01-27T13:07:14;5.30;;;1.90;;
62071;SDS011;48031;48.542;13.232;2024-01-27T13:11:16;6.03;;;2.20;;
62071;SDS011;48031;48.542;13.232;2024-01-27T13:15:18;3.38;;;1.90;;
62071;SDS011;48031;48.542;13.232;2024-01-27T13:19:21;4.88;;;1.90;;
62071;SDS011;48031;48.542;13.232;2024-01-27T13:23:23;4.18;;;1.55;;
62071;SDS011;48031;48.542;13.232;2024-01-27T13:27:25;3.67;;;1.83;;
62071;SDS011;48031;48.542;13.232;2024-01-27T13:31:30;3.05;;;1.70;;
62071;SDS011;48031;48.542;13.232;2024-01-27T13:35:32;3.20;;;1.45;;
62071;SDS011;48031;48.542;13.232;2024-01-27T13:39:34;3.78;;;1.98;;
62071;SDS011;48031;48.542;13.232;2024-01-27T13:43:37;3.53;;;1.60;;
62071;SDS011;48031;48.542;13.232;2024-01-27T13:47:39;5.88;;;1.77;;
62071;SDS011;48031;48.542;13.232;2024-01-27T13:51:41;3.80;;;1.48;;
62071;SDS011;48031;48.542;13.232;2024-01-27T13:55:43;2.97;;;1.58;;
62071;SDS011;48031;48.542;13.232;2024-01-27T13:59:45;2.45;;;1.50;;
62071;SDS011;48031;48.542;13.232;2024-01-27T14:03:47;3.28;;;1.85;;
62071;SDS011;48031;48.542;13.232;2024-01-27T14:07:50;2.75;;;1.60;;
62071;SDS011;48031;48.542;13.232;2024-01-27T14:11:52;5.32;;;1.90;;
62071;SDS011;48031;48.542;13.232;2024-01-27T14:15:53;3.38;;;1.70;;
62071;SDS011;48031;48.542;13.232;2024-01-27T14:19:56;4.22;;;1.65;;
62071;SDS011;48031;48.542;13.232;2024-01-27T14:23:58;2.05;;;1.40;;
62071;SDS011;48031;48.542;13.232;2024-01-27T14:28:04;3.60;;;1.50;;
62071;SDS011;48031;48.542;13.232;2024-01-27T14:32:09;3.80;;;1.60;;
62071;SDS011;48031;48.542;13.232;2024-01-27T14:36:11;7.07;;;2.00;;
62071;SDS011;48031;48.542;13.232;2024-01-27T14:40:13;4.28;;;1.73;;
62071;SDS011;48031;48.542;13.232;2024-01-27T14:44:16;3.95;;;1.70;;
62071;SDS011;48031;48.542;13.232;2024-01-27T14:48:18;4.15;;;1.92;;
62071;SDS011;48031;48.542;13.232;2024-01-27T14:52:21;5.20;;;1.90;;
62071;SDS011;48031;48.542;13.232;2024-01-27T14:56:25;6.78;;;2.05;;
62071;SDS011;48031;48.542;13.232;2024-01-27T15:00:27;2.95;;;1.70;;
62071;SDS011;48031;48.542;13.232;2024-01-27T15:04:28;4.20;;;1.80;;
62071;SDS011;48031;48.542;13.232;2024-01-27T15:08:31;6.00;;;2.10;;
62071;SDS011;48031;48.542;13.232;2024-01-27T15:12:33;4.85;;;1.75;;
62071;SDS011;48031;48.542;13.232;2024-01-27T15:16:35;2.85;;;1.60;;
62071;SDS011;48031;48.542;13.232;2024-01-27T15:20:37;4.10;;;1.70;;
62071;SDS011;48031;48.542;13.232;2024-01-27T15:24:39;2.40;;;1.75;;
62071;SDS011;48031;48.542;13.232;2024-01-27T15:28:41;3.55;;;1.80;;
62071;SDS011;48031;48.542;13.232;2024-01-27T15:32:47;6.72;;;2.28;;
62071;SDS011;48031;48.542;13.232;2024-01-27T15:36:49;9.27;;;2.92;;
62071;SDS011;48031;48.542;13.232;2024-01-27T15:40:51;9.90;;;3.75;;
62071;SDS011;48031;48.542;13.232;2024-01-27T15:44:53;6.60;;;3.17;;
62071;SDS011;48031;48.542;13.232;2024-01-27T15:48:55;6.93;;;3.70;;
62071;SDS011;48031;48.542;13.232;2024-01-27T15:52:58;14.70;;;5.95;;
62071;SDS011;48031;48.542;13.232;2024-01-27T15:57:04;12.50;;;5.50;;
62071;SDS011;48031;48.542;13.232;2024-01-27T16:01:06;12.95;;;5.07;;
62071;SDS011;48031;48.542;13.232;2024-01-27T16:05:08;9.65;;;4.15;;
62071;SDS011;48031;48.542;13.232;2024-01-27T16:09:10;7.70;;;3.35;;
62071;SDS011;48031;48.542;13.232;2024-01-27T16:13:12;5.90;;;2.78;;
62071;SDS011;48031;48.542;13.232;2024-01-27T16:17:14;3.75;;;2.20;;
62071;SDS011;48031;48.542;13.232;2024-01-27T16:21:16;3.33;;;1.98;;
62071;SDS011;48031;48.542;13.232;2024-01-27T16:25:18;3.10;;;2.03;;
62071;SDS011;48031;48.542;13.232;2024-01-27T16:29:20;5.35;;;2.00;;
62071;SDS011;48031;48.542;13.232;2024-01-27T16:33:22;4.63;;;2.78;;
62071;SDS011;48031;48.542;13.232;2024-01-27T16:37:25;3.80;;;2.35;;
62071;SDS011;48031;48.542;13.232;2024-01-27T16:41:27;5.43;;;2.22;;
62071;SDS011;48031;48.542;13.232;2024-01-27T16:45:29;6.68;;;2.30;;
62071;SDS011;48031;48.542;13.232;2024-01-27T16:49:35;4.47;;;2.33;;
62071;SDS011;48031;48.542;13.232;2024-01-27T16:53:38;3.45;;;2.10;;
62071;SDS011;48031;48.542;13.232;2024-01-27T16:57:40;4.25;;;2.40;;
62071;SDS011;48031;48.542;13.232;2024-01-27T17:01:43;5.05;;;3.08;;
62071;SDS011;48031;48.542;13.232;2024-01-27T17:05:45;6.68;;;3.15;;
62071;SDS011;48031;48.542;13.232;2024-01-27T17:09:49;6.80;;;3.03;;
62071;SDS011;48031;48.542;13.232;2024-01-27T17:13:51;5.28;;;3.30;;
62071;SDS011;48031;48.542;13.232;2024-01-27T17:17:53;14.50;;;6.38;;
62071;SDS011;48031;48.542;13.232;2024-01-27T17:21:55;14.77;;;6.35;;
62071;SDS011;48031;48.542;13.232;2024-01-27T17:25:56;38.75;;;16.08;;
62071;SDS011;48031;48.542;13.232;2024-01-27T17:29:59;13.70;;;5.72;;
62071;SDS011;48031;48.542;13.232;2024-01-27T17:34:05;28.30;;;10.82;;
62071;SDS011;48031;48.542;13.232;2024-01-27T17:38:07;27.88;;;9.43;;
62071;SDS011;48031;48.542;13.232;2024-01-27T17:42:09;17.23;;;7.45;;
62071;SDS011;48031;48.542;13.232;2024-01-27T17:46:13;24.25;;;10.13;;
62071;SDS011;48031;48.542;13.232;2024-01-27T17:50:15;15.52;;;6.65;;
62071;SDS011;48031;48.542;13.232;2024-01-27T17:54:17;13.23;;;5.75;;
62071;SDS011;48031;48.542;13.232;2024-01-27T17:58:19;11.93;;;4.70;;
62071;SDS011;48031;48.542;13.232;2024-01-27T18:02:21;11.00;;;4.88;;
62071;SDS011;48031;48.542;13.232;2024-01-27T18:06:28;10.35;;;4.82;;
62071;SDS011;48031;48.542;13.232;2024-01-27T18:10:31;6.68;;;3.50;;
62071;SDS011;48031;48.542;13.232;2024-01-27T18:14:34;8.65;;;3.75;;
62071;SDS011;48031;48.542;13.232;2024-01-27T18:18:36;5.95;;;3.55;;
62071;SDS011;48031;48.542;13.232;2024-01-27T18:22:39;7.00;;;3.53;;
62071;SDS011;48031;48.542;13.232;2024-01-27T18:26:41;6.32;;;3.00;;
62071;SDS011;48031;48.542;13.232;2024-01-27T18:30:43;7.80;;;3.38;;
62071;SDS011;48031;48.542;13.232;2024-01-27T18:34:45;5.28;;;2.67;;
62071;SDS011;48031;48.542;13.232;2024-01-27T18:38:47;10.00;;;3.08;;
62071;SDS011;48031;48.542;13.232;2024-01-27T18:42:49;5.35;;;3.10;;
62071;SDS011;48031;48.542;13.232;2024-01-27T18:46:52;7.32;;;3.30;;
62071;SDS011;48031;48.542;13.232;2024-01-27T18:50:54;4.28;;;2.75;;
62071;SDS011;48031;48.542;13.232;2024-01-27T18:54:57;3.88;;;2.72;;
62071;SDS011;48031;48.542;13.232;2024-01-27T18:58:59;6.53;;;3.08;;
62071;SDS011;48031;48.542;13.232;2024-01-27T19:03:02;3.85;;;2.60;;
62071;SDS011;48031;48.542;13.232;2024-01-27T19:07:11;4.07;;;2.65;;
62071;SDS011;48031;48.542;13.232;2024-01-27T19:11:15;8.07;;;3.38;;
62071;SDS011;48031;48.542;13.232;2024-01-27T19:15:16;6.32;;;2.53;;
62071;SDS011;48031;48.542;13.232;2024-01-27T19:19:19;2.28;;;1.92;;
62071;SDS011;48031;48.542;13.232;2024-01-27T19:23:23;3.22;;;2.42;;
62071;SDS011;48031;48.542;13.232;2024-01-27T19:27:24;2.00;;;1.83;;
62071;SDS011;48031;48.542;13.232;2024-01-27T19:31:27;2.92;;;2.00;;
62071;SDS011;48031;48.542;13.232;2024-01-27T19:35:29;4.75;;;3.25;;
62071;SDS011;48031;48.542;13.232;2024-01-27T19:39:30;5.47;;;3.22;;
62071;SDS011;48031;48.542;13.232;2024-01-27T19:43:32;4.55;;;2.80;;
62071;SDS011;48031;48.542;13.232;2024-01-27T19:47:34;6.95;;;3.72;;
62071;SDS011;48031;48.542;13.232;2024-01-27T19:51:42;4.18;;;2.30;;
62071;SDS011;48031;48.542;13.232;2024-01-27T19:55:48;6.15;;;3.63;;
62071;SDS011;48031;48.542;13.232;2024-01-27T19:59:50;4.43;;;2.95;;
62071;SDS011;48031;48.542;13.232;2024-01-27T20:03:52;6.85;;;3.30;;
62071;SDS011;48031;48.542;13.232;2024-01-27T20:07:54;7.57;;;3.65;;
62071;SDS011;48031;48.542;13.232;2024-01-27T20:11:57;6.25;;;2.92;;
62071;SDS011;48031;48.542;13.232;2024-01-27T20:15:59;4.18;;;2.70;;
62071;SDS011;48031;48.542;13.232;2024-01-27T20:20:02;3.92;;;2.33;;
62071;SDS011;48031;48.542;13.232;2024-01-27T20:24:06;4.18;;;2.47;;
62071;SDS011;48031;48.542;13.232;2024-01-27T20:28:09;4.78;;;2.33;;
62071;SDS011;48031;48.542;13.232;2024-01-27T20:32:11;3.92;;;2.08;;
62071;SDS011;48031;48.542;13.232;2024-01-27T20:36:13;7.72;;;3.28;;
62071;SDS011;48031;48.542;13.232;2024-01-27T20:40:16;2.65;;;1.80;;
62071;SDS011;48031;48.542;13.232;2024-01-27T20:44:19;7.75;;;4.78;;
62071;SDS011;48031;48.542;13.232;2024-01-27T20:48:21;8.27;;;4.93;;
62071;SDS011;48031;48.542;13.232;2024-01-27T20:52:24;8.93;;;4.05;;
62071;SDS011;48031;48.542;13.232;2024-01-27T20:56:26;5.88;;;3.70;;
62071;SDS011;48031;48.542;13.232;2024-01-27T21:00:28;11.88;;;4.28;;
62071;SDS011;48031;48.542;13.232;2024-01-27T21:04:30;7.53;;;3.88;;
62071;SDS011;48031;48.542;13.232;2024-01-27T21:08:32;6.75;;;3.08;;
62071;SDS011;48031;48.542;13.232;2024-01-27T21:12:35;7.65;;;3.22;;
62071;SDS011;48031;48.542;13.232;2024-01-27T21:16:38;5.75;;;2.90;;
62071;SDS011;48031;48.542;13.232;2024-01-27T21:20:41;3.15;;;2.05;;
62071;SDS011;48031;48.542;13.232;2024-01-27T21:24:43;3.53;;;1.92;;
62071;SDS011;48031;48.542;13.232;2024-01-27T21:28:46;7.97;;;4.60;;
62071;SDS011;48031;48.542;13.232;2024-01-27T21:32:48;9.50;;;4.30;;
62071;SDS011;48031;48.542;13.232;2024-01-27T21:36:50;8.10;;;4.20;;
62071;SDS011;48031;48.542;13.232;2024-01-27T21:40:52;4.72;;;3.08;;
62071;SDS011;48031;48.542;13.232;2024-01-27T21:44:54;7.50;;;2.92;;
62071;SDS011;48031;48.542;13.232;2024-01-27T21:48:56;5.88;;;3.00;;
62071;SDS011;48031;48.542;13.232;2024-01-27T21:52:58;3.70;;;2.40;;
62071;SDS011;48031;48.542;13.232;2024-01-27T21:57:01;3.13;;;2.17;;
62071;SDS011;48031;48.542;13.232;2024-01-27T22:01:04;8.23;;;5.53;;
62071;SDS011;48031;48.542;13.232;2024-01-27T22:05:07;4.13;;;2.47;;
62071;SDS011;48031;48.542;13.232;2024-01-27T22:09:13;6.53;;;3.08;;
62071;SDS011;48031;48.542;13.232;2024-01-27T22:13:15;8.23;;;4.28;;
62071;SDS011;48031;48.542;13.232;2024-01-27T22:17:17;6.88;;;3.38;;
62071;SDS011;48031;48.542;13.232;2024-01-27T22:21:19;9.35;;;3.85;;
62071;SDS011;48031;48.542;13.232;2024-01-27T22:25:21;3.42;;;2.38;;
62071;SDS011;48031;48.542;13.232;2024-01-27T22:29:23;7.57;;;3.97;;
62071;SDS011;48031;48.542;13.232;2024-01-27T22:33:25;5.47;;;2.83;;
62071;SDS011;48031;48.542;13.232;2024-01-27T22:37:28;6.55;;;3.80;;
62071;SDS011;48031;48.542;13.232;2024-01-27T22:41:29;5.82;;;2.95;;
62071;SDS011;48031;48.542;13.232;2024-01-27T22:45:32;5.03;;;2.50;;
62071;SDS011;48031;48.542;13.232;2024-01-27T22:49:34;4.50;;;2.55;;
62071;SDS011;48031;48.542;13.232;2024-01-27T22:53:36;6.65;;;3.65;;
62071;SDS011;48031;48.542;13.232;2024-01-27T22:57:39;8.00;;;4.55;;
62071;SDS011;48031;48.542;13.232;2024-01-27T23:01:41;8.05;;;4.70;;
62071;SDS011;48031;48.542;13.232;2024-01-27T23:05:43;5.57;;;3.40;;
62071;SDS011;48031;48.542;13.232;2024-01-27T23:09:45;4.50;;;2.50;;
62071;SDS011;48031;48.542;13.232;2024-01-27T23:13:48;3.65;;;2.55;;
62071;SDS011;48031;48.542;13.232;2024-01-27T23:17:50;5.68;;;3.25;;
62071;SDS011;48031;48.542;13.232;2024-01-27T23:21:52;5.60;;;3.35;;
62071;SDS011;48031;48.542;13.232;2024-01-27T23:25:55;6.43;;;3.55;;
62071;SDS011;48031;48.542;13.232;2024-01-27T23:29:57;10.75;;;4.32;;
62071;SDS011;48031;48.542;13.232;2024-01-27T23:34:00;13.18;;;5.97;;
62071;SDS011;48031;48.542;13.232;2024-01-27T23:38:02;7.15;;;4.35;;
62071;SDS011;48031;48.542;13.232;2024-01-27T23:42:04;9.77;;;4.28;;
62071;SDS011;48031;48.542;13.232;2024-01-27T23:46:06;11.95;;;5.90;;
62071;SDS011;48031;48.542;13.232;2024-01-27T23:50:09;6.00;;;3.10;;
62071;SDS011;48031;48.542;13.232;2024-01-27T23:54:11;11.55;;;5.50;;
62071;SDS011;48031;48.542;13.232;2024-01-27T23:58:16;8.65;;;4.72;;
